sensor_id;sensor_type;location;lat;lon;timestamp;pressure;altitude;pressure_sealevel;temperature;humidity
67345;BME280;54230;52.402;6.276;2023-02-19T00:00:01;101670.0;;;9.5;100.0
67345;BME280;54230;52.402;6.276;2023-02-19T00:05:00;101670.0;;;9.5;100.0
67345;BME280;54230;52.402;6.276;2023-02-19T00:10:00;101660.0;;;9.5;100.0
67345;BME280;54230;52.402;6.276;2023-02-19T00:15:00;101670.0;;;9.4;100.0
67345;BME280;54230;52.402;6.276;2023-02-19T00:20:00;101650.0;;;9.4;100.0
67345;BME280;54230;52.402;6.276;2023-02-19T00:25:00;101660.0;;;9.4;100.0
67345;BME280;54230;52.402;6.276;2023-02-19T00:30:00;101680.0;;;9.4;100.0
67345;BME280;54230;52.402;6.276;2023-02-19T00:35:00;101670.0;;;9.4;100.0
67345;BME280;54230;52.402;6.276;2023-02-19T00:40:00;101670.0;;;9.5;100.0
67345;BME280;54230;52.402;6.276;2023-02-19T00:45:00;101670.0;;;9.5;100.0
67345;BME280;54230;52.402;6.276;2023-02-19T00:50:00;101680.0;;;9.5;100.0
67345;BME280;54230;52.402;6.276;2023-02-19T00:55:00;101680.0;;;9.4;100.0
67345;BME280;54230;52.402;6.276;2023-02-19T01:00:00;101670.0;;;9.5;100.0
67345;BME280;54230;52.402;6.276;2023-02-19T01:05:00;101680.0;;;9.5;100.0
67345;BME280;54230;52.402;6.276;2023-02-19T01:10:00;101680.0;;;9.5;100.0
67345;BME280;54230;52.402;6.276;2023-02-19T01:15:00;101670.0;;;9.5;100.0
67345;BME280;54230;52.402;6.276;2023-02-19T01:20:00;101670.0;;;9.4;100.0
67345;BME280;54230;52.402;6.276;2023-02-19T01:25:00;101680.0;;;9.5;100.0
67345;BME280;54230;52.402;6.276;2023-02-19T01:30:00;101690.0;;;9.5;100.0
67345;BME280;54230;52.402;6.276;2023-02-19T01:35:00;101690.0;;;9.4;100.0
67345;BME280;54230;52.402;6.276;2023-02-19T01:40:00;101690.0;;;9.4;100.0
67345;BME280;54230;52.402;6.276;2023-02-19T01:45:15;101690.0;;;9.3;100.0
67345;BME280;54230;52.402;6.276;2023-02-19T01:50:00;101700.0;;;9.2;100.0
67345;BME280;54230;52.402;6.276;2023-02-19T01:55:02;101690.0;;;9.1;100.0
67345;BME280;54230;52.402;6.276;2023-02-19T02:00:03;101690.0;;;9.1;100.0
67345;BME280;54230;52.402;6.276;2023-02-19T02:05:01;101690.0;;;9.2;100.0
67345;BME280;54230;52.402;6.276;2023-02-19T02:10:01;101690.0;;;9.1;100.0
67345;BME280;54230;52.402;6.276;2023-02-19T02:15:01;101690.0;;;9.0;100.0
67345;BME280;54230;52.402;6.276;2023-02-19T02:20:12;101700.0;;;9.0;100.0
67345;BME280;54230;52.402;6.276;2023-02-19T02:25:10;101690.0;;;9.1;100.0
67345;BME280;54230;52.402;6.276;2023-02-19T02:30:14;101700.0;;;9.0;100.0
67345;BME280;54230;52.402;6.276;2023-02-19T02:35:05;101700.0;;;9.0;100.0
67345;BME280;54230;52.402;6.276;2023-02-19T02:40:01;101700.0;;;9.0;100.0
67345;BME280;54230;52.402;6.276;2023-02-19T02:50:00;101710.0;;;9.0;100.0
67345;BME280;54230;52.402;6.276;2023-02-19T02:55:00;101720.0;;;9.0;100.0
67345;BME280;54230;52.402;6.276;2023-02-19T03:00:00;101720.0;;;9.0;100.0
67345;BME280;54230;52.402;6.276;2023-02-19T03:05:03;101720.0;;;9.0;100.0
67345;BME280;54230;52.402;6.276;2023-02-19T03:10:01;101740.0;;;9.0;100.0
67345;BME280;54230;52.402;6.276;2023-02-19T03:15:05;101740.0;;;8.9;100.0
67345;BME280;54230;52.402;6.276;2023-02-19T03:20:04;101740.0;;;8.9;100.0
67345;BME280;54230;52.402;6.276;2023-02-19T03:25:04;101750.0;;;8.8;100.0
67345;BME280;54230;52.402;6.276;2023-02-19T03:30:02;101750.0;;;8.8;100.0
67345;BME280;54230;52.402;6.276;2023-02-19T03:35:05;101760.0;;;8.7;100.0
67345;BME280;54230;52.402;6.276;2023-02-19T03:40:00;101760.0;;;8.7;100.0
67345;BME280;54230;52.402;6.276;2023-02-19T03:45:10;101760.0;;;8.8;100.0
67345;BME280;54230;52.402;6.276;2023-02-19T03:50:05;101760.0;;;8.8;100.0
67345;BME280;54230;52.402;6.276;2023-02-19T03:55:05;101770.0;;;8.8;100.0
67345;BME280;54230;52.402;6.276;2023-02-19T04:00:05;101780.0;;;8.8;100.0
67345;BME280;54230;52.402;6.276;2023-02-19T04:05:04;101780.0;;;8.9;100.0
67345;BME280;54230;52.402;6.276;2023-02-19T04:10:00;101800.0;;;8.9;100.0
67345;BME280;54230;52.402;6.276;2023-02-19T04:15:02;101810.0;;;8.8;100.0
67345;BME280;54230;52.402;6.276;2023-02-19T04:20:02;101800.0;;;8.8;100.0
67345;BME280;54230;52.402;6.276;2023-02-19T04:25:00;101810.0;;;8.8;100.0
67345;BME280;54230;52.402;6.276;2023-02-19T04:30:00;101820.0;;;8.8;100.0
67345;BME280;54230;52.402;6.276;2023-02-19T04:35:00;101820.0;;;8.8;100.0
67345;BME280;54230;52.402;6.276;2023-02-19T04:40:00;101830.0;;;8.8;100.0
67345;BME280;54230;52.402;6.276;2023-02-19T04:45:00;101840.0;;;8.9;100.0
67345;BME280;54230;52.402;6.276;2023-02-19T04:50:00;101850.0;;;8.8;100.0
67345;BME280;54230;52.402;6.276;2023-02-19T04:55:00;101850.0;;;8.9;100.0
67345;BME280;54230;52.402;6.276;2023-02-19T05:00:00;101870.0;;;8.7;100.0
67345;BME280;54230;52.402;6.276;2023-02-19T05:05:00;101880.0;;;8.7;100.0
67345;BME280;54230;52.402;6.276;2023-02-19T05:10:00;101880.0;;;8.6;100.0
67345;BME280;54230;52.402;6.276;2023-02-19T05:15:00;101880.0;;;8.6;100.0
67345;BME280;54230;52.402;6.276;2023-02-19T05:20:00;101900.0;;;8.5;100.0
67345;BME280;54230;52.402;6.276;2023-02-19T05:25:00;101900.0;;;8.4;100.0
67345;BME280;54230;52.402;6.276;2023-02-19T05:30:00;101890.0;;;8.5;100.0
67345;BME280;54230;52.402;6.276;2023-02-19T05:35:00;101890.0;;;8.4;100.0
67345;BME280;54230;52.402;6.276;2023-02-19T05:40:00;101900.0;;;8.4;100.0
67345;BME280;54230;52.402;6.276;2023-02-19T05:45:00;101890.0;;;8.4;100.0
67345;BME280;54230;52.402;6.276;2023-02-19T05:50:00;101900.0;;;8.4;100.0
67345;BME280;54230;52.402;6.276;2023-02-19T05:55:00;101920.0;;;8.5;100.0
67345;BME280;54230;52.402;6.276;2023-02-19T06:00:00;101920.0;;;8.5;100.0
67345;BME280;54230;52.402;6.276;2023-02-19T06:05:00;101930.0;;;8.5;100.0
67345;BME280;54230;52.402;6.276;2023-02-19T06:10:00;101930.0;;;8.5;100.0
67345;BME280;54230;52.402;6.276;2023-02-19T06:15:00;101940.0;;;8.4;100.0
67345;BME280;54230;52.402;6.276;2023-02-19T06:20:01;101950.0;;;8.4;100.0
67345;BME280;54230;52.402;6.276;2023-02-19T06:25:00;101970.0;;;8.3;100.0
67345;BME280;54230;52.402;6.276;2023-02-19T06:30:00;101980.0;;;8.3;100.0
67345;BME280;54230;52.402;6.276;2023-02-19T06:35:00;101990.0;;;8.3;100.0
67345;BME280;54230;52.402;6.276;2023-02-19T06:40:00;102000.0;;;8.2;100.0
67345;BME280;54230;52.402;6.276;2023-02-19T06:45:00;102010.0;;;8.1;100.0
67345;BME280;54230;52.402;6.276;2023-02-19T06:50:00;102010.0;;;8.0;100.0
67345;BME280;54230;52.402;6.276;2023-02-19T06:55:00;102020.0;;;7.9;100.0
67345;BME280;54230;52.402;6.276;2023-02-19T07:00:00;102010.0;;;7.9;100.0
67345;BME280;54230;52.402;6.276;2023-02-19T07:05:00;102030.0;;;7.9;100.0
67345;BME280;54230;52.402;6.276;2023-02-19T07:10:00;102040.0;;;7.9;100.0
67345;BME280;54230;52.402;6.276;2023-02-19T07:15:00;102050.0;;;7.9;100.0
67345;BME280;54230;52.402;6.276;2023-02-19T07:20:00;102060.0;;;8.0;100.0
67345;BME280;54230;52.402;6.276;2023-02-19T07:25:00;102070.0;;;8.0;100.0
67345;BME280;54230;52.402;6.276;2023-02-19T07:30:00;102080.0;;;7.9;100.0
67345;BME280;54230;52.402;6.276;2023-02-19T07:35:00;102090.0;;;7.9;100.0
67345;BME280;54230;52.402;6.276;2023-02-19T07:40:00;102100.0;;;8.0;100.0
67345;BME280;54230;52.402;6.276;2023-02-19T07:45:00;102110.0;;;8.0;100.0
67345;BME280;54230;52.402;6.276;2023-02-19T07:50:00;102100.0;;;8.0;100.0
67345;BME280;54230;52.402;6.276;2023-02-19T07:55:00;102120.0;;;7.9;100.0
67345;BME280;54230;52.402;6.276;2023-02-19T08:00:00;102130.0;;;7.7;100.0
67345;BME280;54230;52.402;6.276;2023-02-19T08:05:01;102140.0;;;7.5;100.0
67345;BME280;54230;52.402;6.276;2023-02-19T08:10:01;102150.0;;;7.5;100.0
67345;BME280;54230;52.402;6.276;2023-02-19T08:15:00;102150.0;;;7.5;100.0
67345;BME280;54230;52.402;6.276;2023-02-19T08:20:00;102180.0;;;7.5;100.0
67345;BME280;54230;52.402;6.276;2023-02-19T08:25:00;102190.0;;;7.5;100.0
67345;BME280;54230;52.402;6.276;2023-02-19T08:30:00;102190.0;;;7.6;100.0
67345;BME280;54230;52.402;6.276;2023-02-19T08:35:00;102200.0;;;7.6;100.0
67345;BME280;54230;52.402;6.276;2023-02-19T08:40:00;102220.0;;;7.5;100.0
67345;BME280;54230;52.402;6.276;2023-02-19T08:45:00;102230.0;;;7.5;100.0
67345;BME280;54230;52.402;6.276;2023-02-19T08:50:00;102230.0;;;7.5;100.0
67345;BME280;54230;52.402;6.276;2023-02-19T08:55:01;102240.0;;;7.5;100.0
67345;BME280;54230;52.402;6.276;2023-02-19T09:00:00;102250.0;;;7.6;100.0
67345;BME280;54230;52.402;6.276;2023-02-19T09:05:00;102250.0;;;7.6;100.0
67345;BME280;54230;52.402;6.276;2023-02-19T09:10:00;102260.0;;;7.7;100.0
67345;BME280;54230;52.402;6.276;2023-02-19T09:15:00;102250.0;;;7.9;100.0
67345;BME280;54230;52.402;6.276;2023-02-19T09:20:00;102270.0;;;8.0;100.0
67345;BME280;54230;52.402;6.276;2023-02-19T09:25:00;102300.0;;;8.0;100.0
67345;BME280;54230;52.402;6.276;2023-02-19T09:30:00;102320.0;;;7.9;100.0
67345;BME280;54230;52.402;6.276;2023-02-19T09:35:00;102330.0;;;7.6;100.0
67345;BME280;54230;52.402;6.276;2023-02-19T09:40:00;102350.0;;;7.5;100.0
67345;BME280;54230;52.402;6.276;2023-02-19T09:45:00;102350.0;;;7.5;100.0
67345;BME280;54230;52.402;6.276;2023-02-19T09:50:05;102360.0;;;7.5;100.0
67345;BME280;54230;52.402;6.276;2023-02-19T09:55:02;102370.0;;;7.6;100.0
67345;BME280;54230;52.402;6.276;2023-02-19T10:00:04;102370.0;;;7.6;100.0
67345;BME280;54230;52.402;6.276;2023-02-19T10:05:02;102380.0;;;7.5;100.0
67345;BME280;54230;52.402;6.276;2023-02-19T10:10:09;102370.0;;;7.5;100.0
67345;BME280;54230;52.402;6.276;2023-02-19T10:15:08;102390.0;;;7.3;100.0
67345;BME280;54230;52.402;6.276;2023-02-19T10:20:01;102390.0;;;7.4;100.0
67345;BME280;54230;52.402;6.276;2023-02-19T10:25:00;102420.0;;;7.4;100.0
67345;BME280;54230;52.402;6.276;2023-02-19T10:30:00;102430.0;;;7.4;100.0
67345;BME280;54230;52.402;6.276;2023-02-19T10:35:10;102440.00000000001;;;7.5;100.0
67345;BME280;54230;52.402;6.276;2023-02-19T10:40:00;102450.0;;;7.5;100.0
67345;BME280;54230;52.402;6.276;2023-02-19T10:45:01;102440.00000000001;;;7.5;100.0
67345;BME280;54230;52.402;6.276;2023-02-19T10:50:00;102459.99999999999;;;7.6;100.0
67345;BME280;54230;52.402;6.276;2023-02-19T10:55:15;102440.00000000001;;;7.8;100.0
67345;BME280;54230;52.402;6.276;2023-02-19T11:00:16;102440.00000000001;;;8.0;100.0
67345;BME280;54230;52.402;6.276;2023-02-19T11:05:04;102450.0;;;8.2;100.0
67345;BME280;54230;52.402;6.276;2023-02-19T11:10:01;102430.0;;;8.1;100.0
67345;BME280;54230;52.402;6.276;2023-02-19T11:15:16;102440.00000000001;;;8.3;100.0
67345;BME280;54230;52.402;6.276;2023-02-19T11:20:03;102450.0;;;8.9;100.0
67345;BME280;54230;52.402;6.276;2023-02-19T11:25:03;102450.0;;;9.3;100.0
67345;BME280;54230;52.402;6.276;2023-02-19T11:35:14;102459.99999999999;;;9.5;100.0
67345;BME280;54230;52.402;6.276;2023-02-19T11:40:00;102470.0;;;9.5;100.0
67345;BME280;54230;52.402;6.276;2023-02-19T11:45:12;102450.0;;;9.4;97.7
67345;BME280;54230;52.402;6.276;2023-02-19T11:50:05;102459.99999999999;;;9.6;96.1
67345;BME280;54230;52.402;6.276;2023-02-19T11:55:08;102470.0;;;9.7;97.1
67345;BME280;54230;52.402;6.276;2023-02-19T12:00:13;102470.0;;;9.7;95.1
67345;BME280;54230;52.402;6.276;2023-02-19T12:05:08;102470.0;;;9.8;94.9
67345;BME280;54230;52.402;6.276;2023-02-19T12:10:07;102470.0;;;9.8;92.2
67345;BME280;54230;52.402;6.276;2023-02-19T12:15:08;102459.99999999999;;;9.9;91.5
67345;BME280;54230;52.402;6.276;2023-02-19T12:20:05;102450.0;;;9.9;86.6
67345;BME280;54230;52.402;6.276;2023-02-19T12:25:11;102450.0;;;9.8;88.4
67345;BME280;54230;52.402;6.276;2023-02-19T12:30:15;102459.99999999999;;;9.9;87.6
67345;BME280;54230;52.402;6.276;2023-02-19T12:35:14;102470.0;;;10.2;88.8
67345;BME280;54230;52.402;6.276;2023-02-19T12:40:14;102470.0;;;10.5;84.5
67345;BME280;54230;52.402;6.276;2023-02-19T12:45:03;102470.0;;;10.8;81.7
67345;BME280;54230;52.402;6.276;2023-02-19T12:50:04;102480.0;;;11.1;81.2
67345;BME280;54230;52.402;6.276;2023-02-19T12:55:09;102480.0;;;11.1;81.3
67345;BME280;54230;52.402;6.276;2023-02-19T13:00:03;102480.0;;;10.8;82.0
67345;BME280;54230;52.402;6.276;2023-02-19T13:05:03;102490.00000000001;;;10.4;81.0
67345;BME280;54230;52.402;6.276;2023-02-19T13:10:06;102500.0;;;10.5;83.8
67345;BME280;54230;52.402;6.276;2023-02-19T13:15:03;102509.99999999999;;;10.0;79.8
67345;BME280;54230;52.402;6.276;2023-02-19T13:20:06;102509.99999999999;;;10.0;81.3
67345;BME280;54230;52.402;6.276;2023-02-19T13:25:01;102520.0;;;10.3;84.9
67345;BME280;54230;52.402;6.276;2023-02-19T13:30:09;102540.00000000001;;;10.4;85.6
67345;BME280;54230;52.402;6.276;2023-02-19T13:35:15;102550.0;;;10.3;85.8
67345;BME280;54230;52.402;6.276;2023-02-19T13:40:03;102540.00000000001;;;10.2;84.1
67345;BME280;54230;52.402;6.276;2023-02-19T13:45:02;102530.0;;;10.0;85.9
67345;BME280;54230;52.402;6.276;2023-02-19T13:50:04;102530.0;;;9.9;84.6
67345;BME280;54230;52.402;6.276;2023-02-19T14:00:00;102540.00000000001;;;9.8;84.9
67345;BME280;54230;52.402;6.276;2023-02-19T14:05:03;102540.00000000001;;;10.0;84.5
67345;BME280;54230;52.402;6.276;2023-02-19T14:10:00;102540.00000000001;;;9.9;82.1
67345;BME280;54230;52.402;6.276;2023-02-19T14:20:01;102530.0;;;10.1;82.7
67345;BME280;54230;52.402;6.276;2023-02-19T14:25:17;102520.0;;;10.3;81.0
67345;BME280;54230;52.402;6.276;2023-02-19T14:30:01;102500.0;;;10.4;80.5
67345;BME280;54230;52.402;6.276;2023-02-19T14:35:00;102490.00000000001;;;10.2;75.3
67345;BME280;54230;52.402;6.276;2023-02-19T14:40:01;102490.00000000001;;;10.1;77.3
67345;BME280;54230;52.402;6.276;2023-02-19T14:45:02;102480.0;;;10.1;77.3
67345;BME280;54230;52.402;6.276;2023-02-19T14:50:02;102480.0;;;10.0;78.7
67345;BME280;54230;52.402;6.276;2023-02-19T14:55:05;102480.0;;;9.7;75.9
67345;BME280;54230;52.402;6.276;2023-02-19T15:00:02;102470.0;;;9.3;74.3
67345;BME280;54230;52.402;6.276;2023-02-19T15:05:00;102470.0;;;9.4;79.4
67345;BME280;54230;52.402;6.276;2023-02-19T15:10:02;102470.0;;;9.2;79.4
67345;BME280;54230;52.402;6.276;2023-02-19T15:15:02;102480.0;;;9.1;82.2
67345;BME280;54230;52.402;6.276;2023-02-19T15:20:04;102490.00000000001;;;9.1;82.3
67345;BME280;54230;52.402;6.276;2023-02-19T15:25:01;102490.00000000001;;;8.9;83.4
67345;BME280;54230;52.402;6.276;2023-02-19T15:30:00;102520.0;;;8.8;84.3
67345;BME280;54230;52.402;6.276;2023-02-19T15:35:03;102530.0;;;8.6;83.4
67345;BME280;54230;52.402;6.276;2023-02-19T15:40:04;102520.0;;;8.7;85.0
67345;BME280;54230;52.402;6.276;2023-02-19T15:45:02;102500.0;;;8.7;86.5
67345;BME280;54230;52.402;6.276;2023-02-19T15:50:05;102500.0;;;8.7;86.0
67345;BME280;54230;52.402;6.276;2023-02-19T15:55:04;102500.0;;;8.6;86.4
67345;BME280;54230;52.402;6.276;2023-02-19T16:00:04;102509.99999999999;;;8.5;87.7
67345;BME280;54230;52.402;6.276;2023-02-19T16:05:00;102520.0;;;8.5;88.4
67345;BME280;54230;52.402;6.276;2023-02-19T16:10:11;102540.00000000001;;;8.3;88.9
67345;BME280;54230;52.402;6.276;2023-02-19T16:15:11;102550.0;;;8.2;90.6
67345;BME280;54230;52.402;6.276;2023-02-19T16:20:01;102559.99999999999;;;8.1;90.9
67345;BME280;54230;52.402;6.276;2023-02-19T16:25:03;102559.99999999999;;;8.1;92.3
67345;BME280;54230;52.402;6.276;2023-02-19T16:30:03;102559.99999999999;;;8.0;93.0
67345;BME280;54230;52.402;6.276;2023-02-19T16:35:00;102570.0;;;7.9;93.6
67345;BME280;54230;52.402;6.276;2023-02-19T16:45:01;102570.0;;;7.7;92.4
67345;BME280;54230;52.402;6.276;2023-02-19T16:50:03;102570.0;;;7.6;92.7
67345;BME280;54230;52.402;6.276;2023-02-19T16:55:00;102570.0;;;7.6;92.3
67345;BME280;54230;52.402;6.276;2023-02-19T17:00:00;102570.0;;;7.6;93.4
67345;BME280;54230;52.402;6.276;2023-02-19T17:05:01;102590.00000000001;;;7.5;91.7
67345;BME280;54230;52.402;6.276;2023-02-19T17:10:00;102590.00000000001;;;7.4;90.3
67345;BME280;54230;52.402;6.276;2023-02-19T17:15:00;102600.0;;;7.4;91.3
67345;BME280;54230;52.402;6.276;2023-02-19T17:20:00;102600.0;;;7.4;90.9
67345;BME280;54230;52.402;6.276;2023-02-19T17:25:00;102580.0;;;7.3;90.4
67345;BME280;54230;52.402;6.276;2023-02-19T17:30:00;102590.00000000001;;;7.3;90.3
67345;BME280;54230;52.402;6.276;2023-02-19T17:35:00;102590.00000000001;;;7.3;90.0
67345;BME280;54230;52.402;6.276;2023-02-19T17:40:00;102580.0;;;7.2;90.1
67345;BME280;54230;52.402;6.276;2023-02-19T17:45:00;102600.0;;;7.2;89.2
67345;BME280;54230;52.402;6.276;2023-02-19T17:50:00;102609.99999999999;;;7.1;90.0
67345;BME280;54230;52.402;6.276;2023-02-19T17:55:00;102609.99999999999;;;7.0;90.6
67345;BME280;54230;52.402;6.276;2023-02-19T18:00:00;102640.00000000001;;;7.2;93.1
67345;BME280;54230;52.402;6.276;2023-02-19T18:05:00;102620.0;;;7.1;92.3
67345;BME280;54230;52.402;6.276;2023-02-19T18:10:00;102620.0;;;7.0;92.9
67345;BME280;54230;52.402;6.276;2023-02-19T18:15:00;102620.0;;;7.0;94.1
67345;BME280;54230;52.402;6.276;2023-02-19T18:20:00;102609.99999999999;;;7.0;92.7
67345;BME280;54230;52.402;6.276;2023-02-19T18:25:00;102620.0;;;7.0;93.7
67345;BME280;54230;52.402;6.276;2023-02-19T18:30:00;102620.0;;;7.0;94.2
67345;BME280;54230;52.402;6.276;2023-02-19T18:35:00;102600.0;;;6.9;94.3
67345;BME280;54230;52.402;6.276;2023-02-19T18:40:01;102609.99999999999;;;6.9;93.5
67345;BME280;54230;52.402;6.276;2023-02-19T18:45:00;102609.99999999999;;;6.9;95.3
67345;BME280;54230;52.402;6.276;2023-02-19T18:50:00;102609.99999999999;;;6.9;94.2
67345;BME280;54230;52.402;6.276;2023-02-19T18:55:00;102600.0;;;6.8;94.2
67345;BME280;54230;52.402;6.276;2023-02-19T19:00:00;102600.0;;;6.9;96.5
67345;BME280;54230;52.402;6.276;2023-02-19T19:05:00;102600.0;;;6.8;95.8
67345;BME280;54230;52.402;6.276;2023-02-19T19:10:00;102590.00000000001;;;6.7;94.9
67345;BME280;54230;52.402;6.276;2023-02-19T19:15:00;102600.0;;;6.6;95.4
67345;BME280;54230;52.402;6.276;2023-02-19T19:20:00;102609.99999999999;;;6.6;97.3
67345;BME280;54230;52.402;6.276;2023-02-19T19:25:00;102620.0;;;6.6;96.6
67345;BME280;54230;52.402;6.276;2023-02-19T19:30:00;102630.0;;;6.5;97.7
67345;BME280;54230;52.402;6.276;2023-02-19T19:35:00;102640.00000000001;;;6.5;98.8
67345;BME280;54230;52.402;6.276;2023-02-19T19:40:00;102640.00000000001;;;6.5;99.0
67345;BME280;54230;52.402;6.276;2023-02-19T19:45:00;102630.0;;;6.5;99.2
67345;BME280;54230;52.402;6.276;2023-02-19T19:50:00;102620.0;;;6.5;99.7
67345;BME280;54230;52.402;6.276;2023-02-19T19:55:00;102609.99999999999;;;6.4;99.2
67345;BME280;54230;52.402;6.276;2023-02-19T20:00:00;102620.0;;;6.3;99.3
67345;BME280;54230;52.402;6.276;2023-02-19T20:05:00;102620.0;;;6.2;99.3
67345;BME280;54230;52.402;6.276;2023-02-19T20:10:00;102609.99999999999;;;6.1;99.7
67345;BME280;54230;52.402;6.276;2023-02-19T20:15:00;102620.0;;;6.1;100.0
67345;BME280;54230;52.402;6.276;2023-02-19T20:20:00;102620.0;;;6.1;100.0
67345;BME280;54230;52.402;6.276;2023-02-19T20:25:00;102609.99999999999;;;6.0;100.0
67345;BME280;54230;52.402;6.276;2023-02-19T20:30:00;102620.0;;;5.9;100.0
67345;BME280;54230;52.402;6.276;2023-02-19T20:35:00;102609.99999999999;;;5.8;100.0
67345;BME280;54230;52.402;6.276;2023-02-19T20:40:00;102620.0;;;5.7;100.0
67345;BME280;54230;52.402;6.276;2023-02-19T20:45:00;102609.99999999999;;;5.6;100.0
67345;BME280;54230;52.402;6.276;2023-02-19T20:50:00;102600.0;;;5.5;100.0
67345;BME280;54230;52.402;6.276;2023-02-19T20:55:00;102580.0;;;5.5;100.0
67345;BME280;54230;52.402;6.276;2023-02-19T21:00:00;102559.99999999999;;;5.5;100.0
67345;BME280;54230;52.402;6.276;2023-02-19T21:05:00;102570.0;;;5.4;100.0
67345;BME280;54230;52.402;6.276;2023-02-19T21:10:00;102570.0;;;5.3;100.0
67345;BME280;54230;52.402;6.276;2023-02-19T21:15:00;102570.0;;;5.3;100.0
67345;BME280;54230;52.402;6.276;2023-02-19T21:20:00;102570.0;;;5.2;100.0
67345;BME280;54230;52.402;6.276;2023-02-19T21:25:00;102590.00000000001;;;5.2;100.0
67345;BME280;54230;52.402;6.276;2023-02-19T21:30:00;102590.00000000001;;;5.2;100.0
67345;BME280;54230;52.402;6.276;2023-02-19T21:35:00;102600.0;;;5.2;100.0
67345;BME280;54230;52.402;6.276;2023-02-19T21:40:00;102609.99999999999;;;5.2;100.0
67345;BME280;54230;52.402;6.276;2023-02-19T21:45:00;102620.0;;;5.1;100.0
67345;BME280;54230;52.402;6.276;2023-02-19T21:50:00;102640.00000000001;;;5.0;100.0
67345;BME280;54230;52.402;6.276;2023-02-19T21:55:00;102630.0;;;5.0;100.0
67345;BME280;54230;52.402;6.276;2023-02-19T22:00:01;102620.0;;;5.0;100.0
67345;BME280;54230;52.402;6.276;2023-02-19T22:05:00;102609.99999999999;;;4.9;100.0
67345;BME280;54230;52.402;6.276;2023-02-19T22:10:00;102609.99999999999;;;4.9;100.0
67345;BME280;54230;52.402;6.276;2023-02-19T22:15:00;102620.0;;;4.8;100.0
67345;BME280;54230;52.402;6.276;2023-02-19T22:20:00;102600.0;;;4.8;100.0
67345;BME280;54230;52.402;6.276;2023-02-19T22:25:00;102590.00000000001;;;4.8;100.0
67345;BME280;54230;52.402;6.276;2023-02-19T22:30:00;102580.0;;;4.8;100.0
67345;BME280;54230;52.402;6.276;2023-02-19T22:35:00;102590.00000000001;;;4.9;100.0
67345;BME280;54230;52.402;6.276;2023-02-19T22:40:00;102590.00000000001;;;4.9;100.0
67345;BME280;54230;52.402;6.276;2023-02-19T22:45:00;102590.00000000001;;;4.9;100.0
67345;BME280;54230;52.402;6.276;2023-02-19T22:50:01;102580.0;;;4.9;100.0
67345;BME280;54230;52.402;6.276;2023-02-19T22:55:00;102570.0;;;5.0;100.0
67345;BME280;54230;52.402;6.276;2023-02-19T23:00:00;102559.99999999999;;;4.9;100.0
67345;BME280;54230;52.402;6.276;2023-02-19T23:05:00;102570.0;;;5.0;100.0
67345;BME280;54230;52.402;6.276;2023-02-19T23:10:00;102550.0;;;5.1;100.0
67345;BME280;54230;52.402;6.276;2023-02-19T23:15:00;102540.00000000001;;;5.1;100.0
67345;BME280;54230;52.402;6.276;2023-02-19T23:20:01;102530.0;;;5.1;100.0
67345;BME280;54230;52.402;6.276;2023-02-19T23:25:00;102520.0;;;5.2;100.0
67345;BME280;54230;52.402;6.276;2023-02-19T23:30:00;102520.0;;;5.2;100.0
67345;BME280;54230;52.402;6.276;2023-02-19T23:35:00;102520.0;;;5.2;100.0
67345;BME280;54230;52.402;6.276;2023-02-19T23:40:00;102530.0;;;5.2;100.0
67345;BME280;54230;52.402;6.276;2023-02-19T23:45:00;102530.0;;;5.2;100.0
67345;BME280;54230;52.402;6.276;2023-02-19T23:50:00;102530.0;;;5.3;100.0
67345;BME280;54230;52.402;6.276;2023-02-19T23:55:00;102509.99999999999;;;5.2;100.0
